createdAt,value
2022-09-20T00:01:21.119Z,2.33
2022-09-20T00:03:52.982Z,1.75
2022-09-20T00:06:25.973Z,2.15
2022-09-20T00:08:59.439Z,2.40
2022-09-20T00:11:31.611Z,2.80
2022-09-20T00:14:03.650Z,2.92
2022-09-20T00:19:06.527Z,2.97
2022-09-20T00:21:37.864Z,3.10
2022-09-20T00:24:07.298Z,3.25
2022-09-20T00:26:38.035Z,3.30
2022-09-20T00:29:05.309Z,3.38
2022-09-20T00:31:32.613Z,3.03
2022-09-20T00:34:17.925Z,3.10
2022-09-20T00:36:47.520Z,2.78
2022-09-20T00:39:15.911Z,3.53
2022-09-20T00:41:42.712Z,3.80
2022-09-20T00:44:42.697Z,2.88
2022-09-20T00:47:22.279Z,3.30
2022-09-20T00:49:51.885Z,2.90
2022-09-20T00:52:20.574Z,3.55
2022-09-20T00:54:48.412Z,3.70
2022-09-20T00:57:15.128Z,3.47
2022-09-20T00:59:45.104Z,2.33
2022-09-20T01:02:20.546Z,2.40
2022-09-20T01:04:50.843Z,3.03
2022-09-20T01:07:22.363Z,3.95
2022-09-20T01:09:53.785Z,3.50
2022-09-20T01:12:24.374Z,3.78
2022-09-20T01:14:52.928Z,3.50
2022-09-20T01:17:25.053Z,3.20
2022-09-20T01:20:05.988Z,2.88
2022-09-20T01:22:38.686Z,2.80
2022-09-20T01:25:15.046Z,2.47
2022-09-20T01:27:50.712Z,3.40
2022-09-20T01:30:34.557Z,2.45
2022-09-20T01:33:14.193Z,3.10
2022-09-20T01:35:44.348Z,2.97
2022-09-20T01:38:20.226Z,2.95
2022-09-20T01:40:57.070Z,3.50
2022-09-20T01:43:32.981Z,3.10
2022-09-20T01:46:12.299Z,3.20
2022-09-20T01:48:40.331Z,2.65
2022-09-20T01:51:43.169Z,2.85
2022-09-20T01:54:45.688Z,3.90
2022-09-20T02:00:19.521Z,3.80
2022-09-20T02:03:05.305Z,4.10
2022-09-20T02:05:58.522Z,3.70
2022-09-20T02:08:39.442Z,3.33
2022-09-20T02:11:32.115Z,3.70
2022-09-20T02:14:22.254Z,3.78
2022-09-20T02:16:53.582Z,2.45
2022-09-20T02:19:35.441Z,3.35
2022-09-20T02:22:11.384Z,2.50
2022-09-20T02:25:01.210Z,3.00
2022-09-20T02:27:33.102Z,2.83
2022-09-20T02:30:18.794Z,3.70
2022-09-20T02:32:53.608Z,4.03
2022-09-20T02:35:42.082Z,3.97
2022-09-20T02:38:31.107Z,5.30
2022-09-20T02:41:21.963Z,5.00
2022-09-20T02:44:32.878Z,5.30
2022-09-20T02:47:24.850Z,3.97
2022-09-20T02:49:59.432Z,4.78
2022-09-20T02:52:51.729Z,5.93
2022-09-20T02:58:33.956Z,5.30
2022-09-20T03:01:08.007Z,4.90
2022-09-20T03:03:58.347Z,5.47
2022-09-20T03:06:27.989Z,5.63
2022-09-20T03:09:30.357Z,5.43
2022-09-20T03:12:05.282Z,3.97
2022-09-20T03:14:40.859Z,3.67
2022-09-20T03:17:36.724Z,3.53
2022-09-20T03:20:47.264Z,4.20
2022-09-20T03:23:25.684Z,4.07
2022-09-20T03:25:55.135Z,4.15
2022-09-20T03:28:40.286Z,4.30
2022-09-20T03:31:27.227Z,3.67
2022-09-20T03:34:19.219Z,3.65
2022-09-20T03:37:08.816Z,5.75
2022-09-20T03:39:56.678Z,5.38
2022-09-20T03:42:25.693Z,4.38
2022-09-20T03:45:07.809Z,4.85
2022-09-20T03:50:34.276Z,2.97
2022-09-20T03:53:17.528Z,4.18
2022-09-20T03:56:20.134Z,4.20
2022-09-20T03:59:05.539Z,3.63
2022-09-20T04:01:51.207Z,5.07
2022-09-20T04:04:33.090Z,4.88
2022-09-20T04:07:18.039Z,4.55
2022-09-20T04:10:02.753Z,4.25
2022-09-20T04:12:35.618Z,4.07
2022-09-20T04:15:32.505Z,4.32
2022-09-20T04:18:27.099Z,3.85
2022-09-20T04:21:13.278Z,4.60
2022-09-20T04:23:39.907Z,3.92
2022-09-20T04:26:07.030Z,3.20
2022-09-20T04:28:47.396Z,3.67
2022-09-20T04:31:34.333Z,3.70
2022-09-20T04:34:07.035Z,3.92
2022-09-20T04:36:57.149Z,4.97
2022-09-20T04:40:02.620Z,3.97
2022-09-20T04:43:08.348Z,4.53
2022-09-20T04:46:01.011Z,4.88
2022-09-20T04:48:44.924Z,3.38
2022-09-20T04:51:29.806Z,7.40
2022-09-20T04:54:30.175Z,4.75
2022-09-20T04:57:17.923Z,4.35
2022-09-20T05:00:11.105Z,4.35
2022-09-20T05:02:57.592Z,3.42
2022-09-20T05:05:44.476Z,3.60
2022-09-20T05:08:42.269Z,3.47
2022-09-20T05:11:21.250Z,3.60
2022-09-20T05:14:28.688Z,4.00
2022-09-20T05:17:30.926Z,4.65
2022-09-20T05:20:25.252Z,4.90
2022-09-20T05:23:20.387Z,3.33
2022-09-20T05:26:18.639Z,4.22
2022-09-20T05:28:53.771Z,4.50
2022-09-20T05:31:44.832Z,4.68
2022-09-20T05:34:24.507Z,3.45
2022-09-20T05:37:28.698Z,3.67
2022-09-20T05:40:14.059Z,3.88
2022-09-20T05:42:58.103Z,3.90
2022-09-20T05:45:52.591Z,4.85
2022-09-20T05:48:38.035Z,5.18
2022-09-20T05:51:24.654Z,4.75
2022-09-20T05:54:16.858Z,5.05
2022-09-20T05:57:01.572Z,3.35
2022-09-20T05:59:49.304Z,3.20
2022-09-20T06:02:59.858Z,3.22
2022-09-20T06:05:43.120Z,3.80
2022-09-20T06:08:12.751Z,3.15
2022-09-20T06:11:07.328Z,3.60
2022-09-20T06:13:45.206Z,3.88
2022-09-20T06:16:28.298Z,5.35
2022-09-20T06:19:10.896Z,4.18
2022-09-20T06:21:55.718Z,3.60
2022-09-20T06:24:31.308Z,2.83
2022-09-20T06:27:03.116Z,3.60
2022-09-20T06:29:34.024Z,3.78
2022-09-20T06:32:00.986Z,3.63
2022-09-20T06:34:28.911Z,3.83
2022-09-20T06:37:27.450Z,3.10
2022-09-20T06:40:21.822Z,3.20
2022-09-20T06:42:48.517Z,3.28
2022-09-20T06:45:15.223Z,3.40
2022-09-20T06:47:41.932Z,2.85
2022-09-20T06:50:16.298Z,3.17
2022-09-20T06:52:46.818Z,2.90
2022-09-20T06:55:27.220Z,3.03
2022-09-20T07:00:22.661Z,3.20
2022-09-20T07:02:49.536Z,3.38
2022-09-20T07:05:18.123Z,4.18
2022-09-20T07:07:45.051Z,2.92
2022-09-20T07:10:12.238Z,3.53
2022-09-20T07:12:39.135Z,3.42
2022-09-20T07:15:07.236Z,4.03
2022-09-20T07:17:36.524Z,3.53
2022-09-20T07:20:03.789Z,4.35
2022-09-20T07:22:33.655Z,4.60
2022-09-20T07:25:02.364Z,3.75
2022-09-20T07:27:29.845Z,4.63
2022-09-20T07:29:56.529Z,3.78
2022-09-20T07:32:26.804Z,3.42
2022-09-20T07:34:53.486Z,4.22
2022-09-20T07:37:22.494Z,3.78
2022-09-20T07:39:49.895Z,3.75
2022-09-20T07:42:18.860Z,3.72
2022-09-20T07:44:46.136Z,3.67
2022-09-20T07:47:14.213Z,3.58
2022-09-20T07:49:41.049Z,3.97
2022-09-20T07:52:07.740Z,3.00
2022-09-20T07:54:36.690Z,3.70
2022-09-20T07:57:05.609Z,3.55
2022-09-20T07:59:32.604Z,3.30
2022-09-20T08:02:00.659Z,3.30
2022-09-20T08:04:27.477Z,3.42
2022-09-20T08:06:58.460Z,3.00
2022-09-20T08:09:25.197Z,2.80
2022-09-20T08:11:52.471Z,3.13
2022-09-20T08:14:19.811Z,2.90
2022-09-20T08:16:49.710Z,2.22
2022-09-20T08:19:19.206Z,2.22
2022-09-20T08:21:48.565Z,2.47
2022-09-20T08:24:18.807Z,2.20
2022-09-20T08:26:45.487Z,2.35
2022-09-20T08:29:13.326Z,2.22
2022-09-20T08:31:42.378Z,2.00
2022-09-20T08:34:11.892Z,1.73
2022-09-20T08:36:46.687Z,2.03
2022-09-20T08:42:39.131Z,1.83
2022-09-20T08:45:22.456Z,1.88
2022-09-20T08:48:00.307Z,1.67
2022-09-20T08:50:28.084Z,1.88
2022-09-20T08:53:00.658Z,1.98
2022-09-20T08:55:36.483Z,1.90
2022-09-20T08:58:08.231Z,1.80
2022-09-20T09:00:39.792Z,1.80
2022-09-20T09:03:20.032Z,2.50
2022-09-20T09:05:58.083Z,1.92
2022-09-20T09:08:29.461Z,2.15
2022-09-20T09:11:01.471Z,1.83
2022-09-20T09:16:11.486Z,1.95
2022-09-20T09:18:41.499Z,1.63
2022-09-20T09:21:10.416Z,2.10
2022-09-20T09:24:06.433Z,1.85
2022-09-20T09:26:40.700Z,1.50
2022-09-20T09:29:17.818Z,1.98
2022-09-20T09:31:52.688Z,1.63
2022-09-20T09:34:38.885Z,1.73
2022-09-20T09:37:05.763Z,1.90
2022-09-20T09:39:35.817Z,1.60
2022-09-20T09:42:20.454Z,1.75
2022-09-20T09:44:50.258Z,1.70
2022-09-20T09:47:28.229Z,1.67
2022-09-20T09:50:01.882Z,1.65
2022-09-20T09:52:34.563Z,1.00
2022-09-20T09:55:05.679Z,1.60
2022-09-20T09:57:55.715Z,1.48
2022-09-20T10:00:24.024Z,1.48
2022-09-20T10:02:53.984Z,1.98
2022-09-20T10:05:34.867Z,1.88
2022-09-20T10:08:30.133Z,1.42
2022-09-20T10:11:07.445Z,1.33
2022-09-20T10:13:43.574Z,1.10
2022-09-20T10:16:44.643Z,1.10
2022-09-20T10:19:32.086Z,2.85
2022-09-20T10:22:24.364Z,1.20
2022-09-20T10:27:27.139Z,1.73
2022-09-20T10:30:14.937Z,1.30
2022-09-20T10:32:59.910Z,1.13
2022-09-20T10:35:55.693Z,1.40
2022-09-20T10:38:30.821Z,1.30
2022-09-20T10:41:16.089Z,1.30
2022-09-20T10:44:05.133Z,1.35
2022-09-20T10:46:40.993Z,1.17
2022-09-20T10:49:24.848Z,0.90
2022-09-20T10:51:51.927Z,1.15
2022-09-20T10:54:24.865Z,1.00
2022-09-20T10:56:59.125Z,0.90
2022-09-20T10:59:37.162Z,1.10
2022-09-20T11:02:18.337Z,0.85
2022-09-20T11:04:52.955Z,1.10
2022-09-20T11:07:43.598Z,1.05
2022-09-20T11:10:28.949Z,1.08
2022-09-20T11:13:03.339Z,0.93
2022-09-20T11:15:42.041Z,1.08
2022-09-20T11:18:14.819Z,0.90
2022-09-20T11:21:07.877Z,0.90
2022-09-20T11:23:49.062Z,1.10
2022-09-20T11:26:29.659Z,1.13
2022-09-20T11:29:04.829Z,0.90
2022-09-20T11:31:43.678Z,1.00
2022-09-20T11:34:21.087Z,0.98
2022-09-20T11:36:57.605Z,1.10
2022-09-20T11:39:47.999Z,0.90
2022-09-20T11:42:39.737Z,1.00
2022-09-20T11:45:12.460Z,0.95
2022-09-20T11:47:56.024Z,0.90
2022-09-20T11:51:07.664Z,0.80
2022-09-20T11:53:53.399Z,0.95
2022-09-20T11:56:28.639Z,1.00
2022-09-20T11:58:59.054Z,0.80
2022-09-20T12:01:32.538Z,1.10
2022-09-20T12:04:33.917Z,1.20
2022-09-20T12:07:08.695Z,1.20
2022-09-20T12:09:42.333Z,0.90
2022-09-20T12:12:15.212Z,1.00
2022-09-20T12:14:42.267Z,0.60
2022-09-20T12:17:47.042Z,0.80
2022-09-20T12:20:35.846Z,1.10
2022-09-20T12:23:42.584Z,0.95
2022-09-20T12:26:20.451Z,1.05
2022-09-20T12:28:52.234Z,1.05
2022-09-20T12:31:22.104Z,1.20
2022-09-20T12:33:57.486Z,0.80
2022-09-20T12:36:25.430Z,0.85
2022-09-20T12:39:29.792Z,0.98
2022-09-20T12:42:01.144Z,0.90
2022-09-20T12:44:43.583Z,0.88
2022-09-20T12:47:12.612Z,0.85
2022-09-20T12:50:07.421Z,0.80
2022-09-20T12:53:03.883Z,0.93
2022-09-20T12:55:43.708Z,0.70
2022-09-20T12:58:14.234Z,0.82
2022-09-20T13:00:59.251Z,1.00
2022-09-20T13:03:36.479Z,1.00
2022-09-20T13:06:25.001Z,0.95
2022-09-20T13:09:00.924Z,1.00
2022-09-20T13:11:29.793Z,1.13
2022-09-20T13:13:59.290Z,1.13
2022-09-20T13:16:39.753Z,1.05
2022-09-20T13:19:22.906Z,1.25
2022-09-20T13:22:08.592Z,1.80
2022-09-20T13:24:45.080Z,1.50
2022-09-20T13:27:32.473Z,1.52
2022-09-20T13:30:22.768Z,0.90
2022-09-20T13:32:51.416Z,1.17
2022-09-20T13:35:23.475Z,0.80
2022-09-20T13:40:36.120Z,1.15
2022-09-20T13:43:23.146Z,1.05
2022-09-20T13:46:13.753Z,1.00
2022-09-20T13:48:42.802Z,0.85
2022-09-20T13:51:27.342Z,0.77
2022-09-20T13:54:14.449Z,1.00
2022-09-20T13:56:43.702Z,1.10
2022-09-20T13:59:19.169Z,0.90
2022-09-20T14:01:51.897Z,0.90
2022-09-20T14:04:22.949Z,1.13
2022-09-20T14:06:52.253Z,0.88
2022-09-20T14:09:34.789Z,1.00
2022-09-20T14:12:06.104Z,0.93
2022-09-20T14:14:34.863Z,1.45
2022-09-20T14:17:05.594Z,1.05
2022-09-20T14:19:37.253Z,1.48
2022-09-20T14:22:04.781Z,1.30
2022-09-20T14:24:35.588Z,1.20
2022-09-20T14:27:13.644Z,1.40
2022-09-20T14:29:47.151Z,1.02
2022-09-20T14:32:20.275Z,1.17
2022-09-20T14:34:56.225Z,1.10
2022-09-20T14:37:51.665Z,1.08
2022-09-20T14:40:48.074Z,0.93
2022-09-20T14:43:31.535Z,0.93
2022-09-20T14:46:04.603Z,1.35
2022-09-20T14:48:32.849Z,0.98
2022-09-20T14:51:25.175Z,1.45
2022-09-20T14:56:48.881Z,1.58
2022-09-20T14:59:18.614Z,1.45
2022-09-20T15:02:01.163Z,0.90
2022-09-20T15:04:35.332Z,1.10
2022-09-20T15:07:06.237Z,0.93
2022-09-20T15:09:35.424Z,0.95
2022-09-20T15:12:06.580Z,1.10
2022-09-20T15:14:37.952Z,1.37
2022-09-20T15:17:05.464Z,1.23
2022-09-20T15:19:32.175Z,1.30
2022-09-20T15:21:59.722Z,1.40
2022-09-20T15:24:26.415Z,1.30
2022-09-20T15:26:53.639Z,1.20
2022-09-20T15:29:20.308Z,1.30
2022-09-20T15:31:57.651Z,1.20
2022-09-20T15:34:24.490Z,1.05
2022-09-20T15:36:51.195Z,1.40
2022-09-20T15:39:22.120Z,1.42
2022-09-20T15:41:52.124Z,1.63
2022-09-20T15:44:18.821Z,1.30
2022-09-20T15:46:45.607Z,1.50
2022-09-20T15:49:12.738Z,1.52
2022-09-20T15:51:39.508Z,1.35
2022-09-20T15:54:09.573Z,1.42
2022-09-20T15:56:40.522Z,1.33
2022-09-20T15:59:09.940Z,1.25
2022-09-20T16:01:43.487Z,1.20
2022-09-20T16:04:12.765Z,1.33
2022-09-20T16:06:41.719Z,0.88
2022-09-20T16:09:11.895Z,1.73
2022-09-20T16:11:39.273Z,1.30
2022-09-20T16:14:08.868Z,1.20
2022-09-20T16:16:39.984Z,1.27
2022-09-20T16:19:24.924Z,1.30
2022-09-20T16:21:58.707Z,1.20
2022-09-20T16:24:28.014Z,0.90
2022-09-20T16:26:55.303Z,1.30
2022-09-20T16:29:22.391Z,1.38
2022-09-20T16:31:50.277Z,1.40
2022-09-20T16:34:18.480Z,1.33
2022-09-20T16:37:01.000Z,1.63
2022-09-20T16:39:33.668Z,1.63
2022-09-20T16:42:08.717Z,1.50
2022-09-20T16:44:39.247Z,1.35
2022-09-20T16:47:12.249Z,1.33
2022-09-20T16:49:39.633Z,1.60
2022-09-20T16:52:08.027Z,2.20
2022-09-20T16:54:35.072Z,2.35
2022-09-20T16:57:05.127Z,2.40
2022-09-20T16:59:32.234Z,1.95
2022-09-20T17:02:01.024Z,2.92
2022-09-20T17:04:27.796Z,2.45
2022-09-20T17:06:54.537Z,2.88
2022-09-20T17:09:27.535Z,3.00
2022-09-20T17:11:56.753Z,3.08
2022-09-20T17:14:24.977Z,3.80
2022-09-20T17:16:56.429Z,4.20
2022-09-20T17:19:26.479Z,3.42
2022-09-20T17:21:53.286Z,3.50
2022-09-20T17:24:21.766Z,2.60
2022-09-20T17:26:53.811Z,3.50
2022-09-20T17:29:20.984Z,2.70
2022-09-20T17:31:55.054Z,2.10
2022-09-20T17:34:24.559Z,2.75
2022-09-20T17:36:51.338Z,3.40
2022-09-20T17:39:20.333Z,2.40
2022-09-20T17:41:48.456Z,1.70
2022-09-20T17:44:15.759Z,2.08
2022-09-20T17:46:47.895Z,2.53
2022-09-20T17:49:16.895Z,2.53
2022-09-20T17:51:51.818Z,1.80
2022-09-20T17:54:24.395Z,2.30
2022-09-20T17:56:55.928Z,1.85
2022-09-20T17:59:23.070Z,1.90
2022-09-20T18:01:55.588Z,2.00
2022-09-20T18:04:24.561Z,2.20
2022-09-20T18:06:57.596Z,2.10
2022-09-20T18:09:25.963Z,1.88
2022-09-20T18:11:54.915Z,2.00
2022-09-20T18:14:25.621Z,1.42
2022-09-20T18:17:00.903Z,2.05
2022-09-20T18:19:33.530Z,1.83
2022-09-20T18:22:06.024Z,3.55
2022-09-20T18:24:34.960Z,3.20
2022-09-20T18:27:01.897Z,3.35
2022-09-20T18:29:29.245Z,3.63
2022-09-20T18:34:51.422Z,2.00
2022-09-20T18:37:18.196Z,1.98
2022-09-20T18:39:44.888Z,1.83
2022-09-20T18:42:13.911Z,2.50
2022-09-20T18:44:43.146Z,2.55
2022-09-20T18:47:10.222Z,2.60
2022-09-20T18:49:39.352Z,3.67
2022-09-20T18:52:10.814Z,3.70
2022-09-20T18:54:40.914Z,3.13
2022-09-20T18:57:10.197Z,2.63
2022-09-20T18:59:37.358Z,2.97
2022-09-20T19:02:19.890Z,2.65
2022-09-20T19:05:06.726Z,2.08
2022-09-20T19:07:45.686Z,2.22
2022-09-20T19:10:42.731Z,3.50
2022-09-20T19:13:36.116Z,2.78
2022-09-20T19:16:08.729Z,2.33
2022-09-20T19:19:17.814Z,2.70
2022-09-20T19:21:58.729Z,2.50
2022-09-20T19:24:25.439Z,3.13
2022-09-20T19:26:56.848Z,3.05
2022-09-20T19:29:27.283Z,2.97
2022-09-20T19:32:00.902Z,3.22
2022-09-20T19:34:29.851Z,2.50
2022-09-20T19:38:09.854Z,2.60
2022-09-20T19:41:18.088Z,2.70
2022-09-20T19:44:16.209Z,2.50
2022-09-20T19:47:17.604Z,2.67
2022-09-20T19:49:55.218Z,2.40
2022-09-20T19:52:23.324Z,2.03
2022-09-20T19:54:50.907Z,1.80
2022-09-20T19:57:43.349Z,2.55
2022-09-20T20:00:21.299Z,1.95
2022-09-20T20:02:56.123Z,2.03
2022-09-20T20:05:27.670Z,2.20
2022-09-20T20:08:35.212Z,2.28
2022-09-20T20:11:46.967Z,2.17
2022-09-20T20:14:45.563Z,2.50
2022-09-20T20:17:49.694Z,2.20
2022-09-20T20:20:44.623Z,2.00
2022-09-20T20:23:39.778Z,2.03
2022-09-20T20:26:21.451Z,2.10
2022-09-20T20:28:52.399Z,2.20
2022-09-20T20:31:20.281Z,2.45
2022-09-20T20:33:47.670Z,2.40
2022-09-20T20:36:15.896Z,2.50
2022-09-20T20:38:49.713Z,2.70
2022-09-20T20:41:22.450Z,2.60
2022-09-20T20:43:56.075Z,1.98
2022-09-20T20:46:25.898Z,2.70
2022-09-20T20:48:52.916Z,2.40
2022-09-20T20:51:22.202Z,2.40
2022-09-20T20:53:51.468Z,2.75
2022-09-20T20:56:21.854Z,2.72
2022-09-20T20:58:49.289Z,2.85
2022-09-20T21:01:25.144Z,2.75
2022-09-20T21:03:53.534Z,2.45
2022-09-20T21:06:22.473Z,2.72
2022-09-20T21:08:49.893Z,2.78
2022-09-20T21:11:23.446Z,4.00
2022-09-20T21:14:01.068Z,3.33
2022-09-20T21:16:38.483Z,3.53
2022-09-20T21:19:06.377Z,4.07
2022-09-20T21:21:38.724Z,2.95
2022-09-20T21:24:09.757Z,3.33
2022-09-20T21:26:39.755Z,2.70
2022-09-20T21:29:12.261Z,2.30
2022-09-20T21:31:45.864Z,2.90
2022-09-20T21:34:15.324Z,2.58
2022-09-20T21:36:42.730Z,2.38
2022-09-20T21:39:12.045Z,3.15
2022-09-20T21:41:39.511Z,3.17
2022-09-20T21:44:07.878Z,2.53
2022-09-20T21:46:37.071Z,3.10
2022-09-20T21:49:05.502Z,2.40
2022-09-20T21:51:34.741Z,2.38
2022-09-20T21:54:05.048Z,2.60
2022-09-20T21:56:33.994Z,2.95
2022-09-20T21:59:03.714Z,2.65
2022-09-20T22:01:38.041Z,2.80
2022-09-20T22:04:07.401Z,2.95
2022-09-20T22:06:38.887Z,2.33
2022-09-20T22:09:17.440Z,2.28
2022-09-20T22:11:46.686Z,2.55
2022-09-20T22:14:15.727Z,2.78
2022-09-20T22:16:43.828Z,2.88
2022-09-20T22:19:18.985Z,2.70
2022-09-20T22:21:50.955Z,2.83
2022-09-20T22:24:18.011Z,2.92
2022-09-20T22:26:53.646Z,2.60
2022-09-20T22:29:22.498Z,2.33
2022-09-20T22:31:52.009Z,2.90
2022-09-20T22:34:24.176Z,2.85
2022-09-20T22:36:53.867Z,2.95
2022-09-20T22:39:20.527Z,3.00
2022-09-20T22:41:50.623Z,2.85
2022-09-20T22:44:22.143Z,3.15
2022-09-20T22:46:51.495Z,2.92
2022-09-20T22:49:20.757Z,3.10
2022-09-20T22:51:52.138Z,3.38
2022-09-20T22:54:18.913Z,2.40
2022-09-20T22:56:47.838Z,2.60
2022-09-20T22:59:15.344Z,2.72
2022-09-20T23:01:44.780Z,3.60
2022-09-20T23:04:14.476Z,3.22
2022-09-20T23:06:43.527Z,2.85
2022-09-20T23:09:12.893Z,3.65
2022-09-20T23:11:42.095Z,3.35
2022-09-20T23:14:13.366Z,2.95
2022-09-20T23:16:40.223Z,3.07
2022-09-20T23:19:10.481Z,3.00
2022-09-20T23:21:38.725Z,3.40
2022-09-20T23:24:10.002Z,3.33
2022-09-20T23:26:38.936Z,3.17
2022-09-20T23:29:07.279Z,2.72
2022-09-20T23:31:45.537Z,3.20
2022-09-20T23:34:13.748Z,3.22
2022-09-20T23:36:41.463Z,3.33
2022-09-20T23:39:13.762Z,3.60
2022-09-20T23:41:46.987Z,2.65
2022-09-20T23:44:21.139Z,3.33
2022-09-20T23:46:50.154Z,2.95
2022-09-20T23:49:16.895Z,3.03
2022-09-20T23:51:43.604Z,2.83
2022-09-20T23:54:12.527Z,3.03
2022-09-20T23:56:40.240Z,3.72
2022-09-20T23:59:06.946Z,3.55
